BAW9SW KSAN-EGLL
Flight info
| Callsign | BAW9SW |
|---|---|
| Flight time | N/A |
| Altitude | 33000 |
| Route | ZZOOO4 MTBAL DCT EED DCT KD45Q DCT KD57U DCT KD72A DCT ONL DCT KP84G DCT KP90K/N0486F350 DCT SSM DCT YVO DCT TABRU Q910 YNA DCT ALLRY/M084F350 DCT 51N050W 52N040W 52N030W 52N020W DCT DINIM DCT ELSOX DCT LESLU/N0481F350 DCT FONZU DCT ELRIP DCT OTMET |
| Aircraft | B77W/H-SDE1E2E3FGHIJ2J3J4J5M1RWXY/LB1D1 |
Departure
| Time | N/A |
|---|---|
| Airport | San Diego International Airport (KSAN) |
Arrival
| Time | 2026-05-05 14:37 |
|---|---|
| Airport | London Heathrow Airport (EGLL) |
| Time | Latitude | Longitude | Altitude | Speed | Heading |
|---|---|---|---|---|---|
| 2026-05-05 14:08 | 50.73848 | -3.49957 | 34990 ft | 479 kts | 108° |
| 2026-05-05 14:08 | 50.72785 | -3.44940 | 34987 ft | 476 kts | 108° |
| 2026-05-05 14:09 | 50.70722 | -3.35247 | 34992 ft | 477 kts | 108° |
| 2026-05-05 14:09 | 50.68607 | -3.25368 | 34983 ft | 472 kts | 109° |
| 2026-05-05 14:10 | 50.66514 | -3.15643 | 34977 ft | 469 kts | 109° |
| 2026-05-05 14:10 | 50.64445 | -3.05986 | 34293 ft | 466 kts | 107° |
| 2026-05-05 14:11 | 50.63744 | -3.01028 | 33306 ft | 474 kts | 99° |
| 2026-05-05 14:11 | 50.63510 | -2.95812 | 32318 ft | 481 kts | 91° |
| 2026-05-05 14:11 | 50.63772 | -2.90680 | 31438 ft | 487 kts | 83° |
| 2026-05-05 14:11 | 50.64355 | -2.85392 | 30523 ft | 488 kts | 82° |
| 2026-05-05 14:12 | 50.64958 | -2.80200 | 29993 ft | 480 kts | 82° |
| 2026-05-05 14:12 | 50.65547 | -2.75081 | 29510 ft | 473 kts | 82° |
| 2026-05-05 14:12 | 50.66128 | -2.69974 | 28963 ft | 466 kts | 82° |
| 2026-05-05 14:12 | 50.66687 | -2.65006 | 28419 ft | 460 kts | 82° |
| 2026-05-05 14:13 | 50.67233 | -2.60120 | 27870 ft | 454 kts | 82° |
| 2026-05-05 14:13 | 50.67757 | -2.55382 | 27323 ft | 449 kts | 82° |
| 2026-05-05 14:13 | 50.68053 | -2.50502 | 26766 ft | 441 kts | 91° |
| 2026-05-05 14:13 | 50.67934 | -2.45671 | 26473 ft | 441 kts | 95° |
| 2026-05-05 14:14 | 50.67740 | -2.40817 | 26240 ft | 450 kts | 95° |
| 2026-05-05 14:14 | 50.67537 | -2.35895 | 25951 ft | 448 kts | 95° |
| 2026-05-05 14:14 | 50.67332 | -2.30999 | 25637 ft | 443 kts | 95° |
| 2026-05-05 14:14 | 50.67128 | -2.26208 | 25343 ft | 440 kts | 95° |
| 2026-05-05 14:15 | 50.66920 | -2.21365 | 25039 ft | 438 kts | 95° |
| 2026-05-05 14:15 | 50.66714 | -2.16639 | 24746 ft | 436 kts | 95° |
| 2026-05-05 14:15 | 50.66503 | -2.11860 | 24449 ft | 435 kts | 95° |
| 2026-05-05 14:15 | 50.66291 | -2.07094 | 24150 ft | 433 kts | 95° |
| 2026-05-05 14:16 | 50.66095 | -2.02740 | 23885 ft | 432 kts | 95° |
| 2026-05-05 14:16 | 50.66009 | -1.98045 | 23598 ft | 430 kts | 89° |
| 2026-05-05 14:16 | 50.66096 | -1.93335 | 23306 ft | 428 kts | 89° |
| 2026-05-05 14:16 | 50.66184 | -1.88613 | 23006 ft | 426 kts | 89° |
| 2026-05-05 14:17 | 50.66260 | -1.84001 | 22732 ft | 424 kts | 89° |
| 2026-05-05 14:17 | 50.66328 | -1.79399 | 22445 ft | 422 kts | 89° |
| 2026-05-05 14:17 | 50.66389 | -1.74759 | 22154 ft | 419 kts | 89° |
| 2026-05-05 14:17 | 50.66445 | -1.70206 | 21880 ft | 417 kts | 89° |
| 2026-05-05 14:18 | 50.66496 | -1.65601 | 21595 ft | 416 kts | 89° |
| 2026-05-05 14:18 | 50.66544 | -1.61073 | 21307 ft | 415 kts | 88° |
| 2026-05-05 14:18 | 50.66792 | -1.56577 | 21031 ft | 412 kts | 79° |
| 2026-05-05 14:18 | 50.67532 | -1.52194 | 20688 ft | 412 kts | 69° |
| 2026-05-05 14:19 | 50.68675 | -1.48084 | 20219 ft | 410 kts | 64° |
| 2026-05-05 14:19 | 50.69918 | -1.44068 | 19747 ft | 405 kts | 63° |
| 2026-05-05 14:19 | 50.71150 | -1.40096 | 19286 ft | 401 kts | 63° |
| 2026-05-05 14:19 | 50.72361 | -1.36182 | 18856 ft | 399 kts | 63° |
| 2026-05-05 14:20 | 50.73578 | -1.32241 | 18402 ft | 398 kts | 64° |
| 2026-05-05 14:20 | 50.74804 | -1.28346 | 17984 ft | 394 kts | 60° |
| 2026-05-05 14:20 | 50.76331 | -1.24803 | 17559 ft | 390 kts | 50° |
| 2026-05-05 14:20 | 50.78222 | -1.21789 | 17128 ft | 387 kts | 40° |
| 2026-05-05 14:21 | 50.80335 | -1.19377 | 16733 ft | 385 kts | 34° |
| 2026-05-05 14:21 | 50.82581 | -1.17048 | 16321 ft | 382 kts | 33° |
| 2026-05-05 14:21 | 50.84822 | -1.14732 | 15883 ft | 379 kts | 33° |
| 2026-05-05 14:21 | 50.87004 | -1.12478 | 15457 ft | 377 kts | 33° |
| 2026-05-05 14:22 | 50.89182 | -1.10225 | 15062 ft | 373 kts | 33° |
| 2026-05-05 14:22 | 50.91366 | -1.07963 | 14655 ft | 371 kts | 34° |
| 2026-05-05 14:22 | 50.93504 | -1.05746 | 14254 ft | 367 kts | 34° |
| 2026-05-05 14:22 | 50.95640 | -1.03529 | 13836 ft | 365 kts | 34° |
| 2026-05-05 14:23 | 50.97761 | -1.01326 | 13428 ft | 363 kts | 34° |
| 2026-05-05 14:23 | 50.99840 | -0.99098 | 13044 ft | 362 kts | 38° |
| 2026-05-05 14:23 | 51.01668 | -0.96385 | 12665 ft | 356 kts | 47° |
| 2026-05-05 14:23 | 51.03304 | -0.93515 | 12373 ft | 346 kts | 48° |
| 2026-05-05 14:24 | 51.04895 | -0.90691 | 12088 ft | 336 kts | 48° |
| 2026-05-05 14:24 | 51.06428 | -0.87961 | 11799 ft | 328 kts | 48° |
| 2026-05-05 14:24 | 51.07933 | -0.85281 | 11512 ft | 321 kts | 48° |
| 2026-05-05 14:24 | 51.09391 | -0.82680 | 11230 ft | 314 kts | 48° |
| 2026-05-05 14:25 | 51.10825 | -0.80119 | 10953 ft | 307 kts | 48° |
| 2026-05-05 14:25 | 51.12232 | -0.77605 | 10686 ft | 301 kts | 48° |
| 2026-05-05 14:25 | 51.13617 | -0.75128 | 10420 ft | 295 kts | 48° |
| 2026-05-05 14:25 | 51.14936 | -0.72766 | 10163 ft | 289 kts | 48° |
| 2026-05-05 14:26 | 51.16228 | -0.70449 | 9900 ft | 285 kts | 48° |
| 2026-05-05 14:26 | 51.17521 | -0.68129 | 9509 ft | 283 kts | 48° |
| 2026-05-05 14:26 | 51.18798 | -0.65836 | 9260 ft | 271 kts | 47° |
| 2026-05-05 14:26 | 51.20058 | -0.63573 | 9047 ft | 271 kts | 47° |
| 2026-05-05 14:27 | 51.21295 | -0.61348 | 8785 ft | 268 kts | 47° |
| 2026-05-05 14:27 | 51.22544 | -0.59099 | 8265 ft | 271 kts | 47° |
| 2026-05-05 14:27 | 51.23740 | -0.56944 | 7857 ft | 265 kts | 47° |
| 2026-05-05 14:27 | 51.24947 | -0.54766 | 7534 ft | 256 kts | 47° |
| 2026-05-05 14:28 | 51.26112 | -0.52733 | 7431 ft | 242 kts | 40° |
| 2026-05-05 14:28 | 51.27599 | -0.51370 | 7415 ft | 256 kts | 17° |
| 2026-05-05 14:28 | 51.29340 | -0.51104 | 7392 ft | 259 kts | 352° |
| 2026-05-05 14:28 | 51.31044 | -0.52091 | 7372 ft | 263 kts | 327° |
| 2026-05-05 14:29 | 51.32309 | -0.54173 | 7353 ft | 266 kts | 301° |
| 2026-05-05 14:29 | 51.33017 | -0.56924 | 7342 ft | 269 kts | 289° |
| 2026-05-05 14:29 | 51.33576 | -0.59778 | 7152 ft | 270 kts | 289° |
| 2026-05-05 14:29 | 51.34135 | -0.62639 | 6985 ft | 263 kts | 289° |
| 2026-05-05 14:30 | 51.34670 | -0.65332 | 6968 ft | 250 kts | 289° |
| 2026-05-05 14:30 | 51.35201 | -0.67961 | 6746 ft | 248 kts | 290° |
| 2026-05-05 14:30 | 51.35733 | -0.70584 | 6393 ft | 247 kts | 290° |
| 2026-05-05 14:30 | 51.36248 | -0.73137 | 6146 ft | 235 kts | 290° |
| 2026-05-05 14:31 | 51.36739 | -0.75570 | 5915 ft | 223 kts | 291° |
| 2026-05-05 14:31 | 51.37487 | -0.77673 | 5654 ft | 216 kts | 316° |
| 2026-05-05 14:31 | 51.38703 | -0.78967 | 5293 ft | 213 kts | 342° |
| 2026-05-05 14:31 | 51.40131 | -0.79263 | 4885 ft | 213 kts | 7° |
| 2026-05-05 14:32 | 51.41583 | -0.78956 | 4529 ft | 213 kts | 5° |
| 2026-05-05 14:32 | 51.43068 | -0.78900 | 4262 ft | 210 kts | 0° |
| 2026-05-05 14:32 | 51.44497 | -0.78574 | 3961 ft | 206 kts | 22° |
| 2026-05-05 14:32 | 51.45660 | -0.77310 | 3663 ft | 203 kts | 41° |
| 2026-05-05 14:33 | 51.46630 | -0.75726 | 3334 ft | 200 kts | 51° |
| 2026-05-05 14:33 | 51.47211 | -0.73859 | 2960 ft | 199 kts | 70° |
| 2026-05-05 14:33 | 51.47579 | -0.71820 | 2813 ft | 185 kts | 76° |
| 2026-05-05 14:33 | 51.47692 | -0.69741 | 2639 ft | 187 kts | 86° |
| 2026-05-05 14:34 | 51.47678 | -0.67698 | 2379 ft | 175 kts | 86° |
| 2026-05-05 14:34 | 51.47676 | -0.65823 | 2170 ft | 163 kts | 85° |
| 2026-05-05 14:34 | 51.47684 | -0.64089 | 1988 ft | 149 kts | 85° |
| 2026-05-05 14:34 | 51.47692 | -0.62438 | 1807 ft | 145 kts | 85° |
| 2026-05-05 14:35 | 51.47699 | -0.60846 | 1622 ft | 143 kts | 85° |
| 2026-05-05 14:35 | 51.47707 | -0.59232 | 1426 ft | 142 kts | 85° |
| 2026-05-05 14:35 | 51.47713 | -0.57648 | 1235 ft | 143 kts | 85° |
| 2026-05-05 14:35 | 51.47720 | -0.56063 | 1043 ft | 144 kts | 85° |
| 2026-05-05 14:36 | 51.47734 | -0.54462 | 852 ft | 142 kts | 85° |
| 2026-05-05 14:36 | 51.47741 | -0.52878 | 644 ft | 143 kts | 88° |
| 2026-05-05 14:36 | 51.47730 | -0.51271 | 449 ft | 144 kts | 87° |
| 2026-05-05 14:36 | 51.47750 | -0.49688 | 264 ft | 142 kts | 87° |
| 2026-05-05 14:37 | 51.47747 | -0.48092 | 118 ft | 142 kts | 87° |
| 2026-05-05 14:37 | 51.47758 | -0.46635 | 98 ft | 114 kts | 90° |
| 2026-05-05 14:37 | 51.47758 | -0.45565 | 98 ft | 78 kts | 88° |
| 2026-05-05 14:37 | 51.47763 | -0.44887 | 98 ft | 42 kts | 89° |
| 2026-05-05 14:38 | 51.47739 | -0.44537 | 98 ft | 25 kts | 106° |
| 2026-05-05 14:38 | 51.47684 | -0.44330 | 98 ft | 16 kts | 115° |
| 2026-05-05 14:38 | 51.47670 | -0.44284 | 98 ft | 0 kts | 127° |
| 2026-05-05 14:40 | 51.47665 | -0.44275 | 98 ft | 3 kts | 127° |
| 2026-05-05 14:40 | 51.47648 | -0.44250 | 98 ft | 3 kts | 144° |
| 2026-05-05 14:40 | 51.47622 | -0.44249 | 98 ft | 5 kts | 211° |
| 2026-05-05 14:40 | 51.47597 | -0.44354 | 98 ft | 14 kts | 268° |
| 2026-05-05 14:41 | 51.47596 | -0.44538 | 98 ft | 18 kts | 269° |
| 2026-05-05 14:41 | 51.47596 | -0.44725 | 98 ft | 21 kts | 270° |
| 2026-05-05 14:41 | 51.47597 | -0.45030 | 98 ft | 26 kts | 269° |
| 2026-05-05 14:41 | 51.47596 | -0.45317 | 98 ft | 25 kts | 269° |
| 2026-05-05 14:42 | 51.47596 | -0.45595 | 98 ft | 24 kts | 270° |
| 2026-05-05 14:42 | 51.47595 | -0.45854 | 98 ft | 22 kts | 269° |
| 2026-05-05 14:42 | 51.47595 | -0.46103 | 98 ft | 22 kts | 270° |
| 2026-05-05 14:42 | 51.47592 | -0.46397 | 98 ft | 27 kts | 269° |
| 2026-05-05 14:43 | 51.47592 | -0.46690 | 98 ft | 25 kts | 269° |
| 2026-05-05 14:43 | 51.47581 | -0.46969 | 98 ft | 24 kts | 269° |
| 2026-05-05 14:43 | 51.47581 | -0.47232 | 98 ft | 23 kts | 269° |
| 2026-05-05 14:43 | 51.47579 | -0.47486 | 98 ft | 22 kts | 269° |
| 2026-05-05 14:44 | 51.47579 | -0.47729 | 98 ft | 21 kts | 269° |
| 2026-05-05 14:44 | 51.47545 | -0.47869 | 98 ft | 12 kts | 192° |
| 2026-05-05 14:44 | 51.47455 | -0.47875 | 98 ft | 13 kts | 180° |
| 2026-05-05 14:44 | 51.47355 | -0.47874 | 98 ft | 8 kts | 179° |
| 2026-05-05 14:45 | 51.47322 | -0.47841 | 98 ft | 6 kts | 110° |
| 2026-05-05 14:45 | 51.47316 | -0.47781 | 98 ft | 2 kts | 93° |
| 2026-05-05 14:45 | 51.47316 | -0.47774 | 98 ft | 1 kts | 93° |
| 2026-05-05 14:45 | 51.47315 | -0.47752 | 98 ft | 1 kts | 92° |
| 2026-05-05 14:46 | 51.47315 | -0.47741 | 98 ft | 0 kts | 91° |
| 2026-05-05 14:46 | 51.47315 | -0.47735 | 98 ft | 0 kts | 89° |